sensor_id;sensor_type;location;lat;lon;timestamp;pressure;altitude;pressure_sealevel;temperature;humidity
51849;BME280;38952;51.090;-1.832;2023-06-22T00:01:58;100645.47;;;14.87;90.25
51849;BME280;38952;51.090;-1.832;2023-06-22T00:04:26;100639.47;;;14.79;91.24
51849;BME280;38952;51.090;-1.832;2023-06-22T00:06:52;100631.31;;;14.69;91.34
51849;BME280;38952;51.090;-1.832;2023-06-22T00:09:20;100646.22;;;14.63;91.27
51849;BME280;38952;51.090;-1.832;2023-06-22T00:11:45;100637.97;;;14.58;91.70
51849;BME280;38952;51.090;-1.832;2023-06-22T00:14:11;100647.34;;;14.57;91.83
51849;BME280;38952;51.090;-1.832;2023-06-22T00:16:36;100637.47;;;14.51;91.66
51849;BME280;38952;51.090;-1.832;2023-06-22T00:19:02;100633.38;;;14.48;91.95
51849;BME280;38952;51.090;-1.832;2023-06-22T00:21:29;100638.06;;;14.47;92.02
51849;BME280;38952;51.090;-1.832;2023-06-22T00:23:55;100639.22;;;14.41;92.34
51849;BME280;38952;51.090;-1.832;2023-06-22T00:26:23;100639.75;;;14.38;92.34
51849;BME280;38952;51.090;-1.832;2023-06-22T00:28:48;100630.19;;;14.36;92.63
51849;BME280;38952;51.090;-1.832;2023-06-22T00:31:14;100624.97;;;14.34;92.47
51849;BME280;38952;51.090;-1.832;2023-06-22T00:33:39;100623.84;;;14.35;92.55
51849;BME280;38952;51.090;-1.832;2023-06-22T00:36:05;100622.53;;;14.27;93.10
51849;BME280;38952;51.090;-1.832;2023-06-22T00:38:33;100618.66;;;14.28;92.55
51849;BME280;38952;51.090;-1.832;2023-06-22T00:40:59;100621.72;;;14.27;92.72
51849;BME280;38952;51.090;-1.832;2023-06-22T00:43:24;100630.25;;;14.25;92.85
51849;BME280;38952;51.090;-1.832;2023-06-22T00:45:49;100617.63;;;14.19;92.73
51849;BME280;38952;51.090;-1.832;2023-06-22T00:48:18;100592.13;;;14.08;92.29
51849;BME280;38952;51.090;-1.832;2023-06-22T00:50:43;100609.34;;;14.24;92.72
51849;BME280;38952;51.090;-1.832;2023-06-22T00:53:09;100611.28;;;14.24;93.15
51849;BME280;38952;51.090;-1.832;2023-06-22T00:55:41;100616.53;;;14.20;92.72
51849;BME280;38952;51.090;-1.832;2023-06-22T00:58:09;100624.47;;;14.22;92.84
51849;BME280;38952;51.090;-1.832;2023-06-22T01:00:36;100623.66;;;14.21;93.12
51849;BME280;38952;51.090;-1.832;2023-06-22T01:03:04;100632.22;;;14.20;93.02
51849;BME280;38952;51.090;-1.832;2023-06-22T01:05:34;100634.97;;;14.20;93.14
51849;BME280;38952;51.090;-1.832;2023-06-22T01:16:10;100647.13;;;14.08;93.23
51849;BME280;38952;51.090;-1.832;2023-06-22T01:18:42;100643.84;;;14.01;92.73
51849;BME280;38952;51.090;-1.832;2023-06-22T01:21:12;100646.09;;;13.94;93.53
51849;BME280;38952;51.090;-1.832;2023-06-22T01:29:21;100645.59;;;13.87;93.61
51849;BME280;38952;51.090;-1.832;2023-06-22T01:31:48;100642.84;;;13.87;93.79
51849;BME280;38952;51.090;-1.832;2023-06-22T01:34:16;100635.16;;;13.84;93.76
51849;BME280;38952;51.090;-1.832;2023-06-22T01:36:42;100638.19;;;13.82;93.43
51849;BME280;38952;51.090;-1.832;2023-06-22T01:39:09;100640.69;;;13.78;93.49
51849;BME280;38952;51.090;-1.832;2023-06-22T01:41:37;100648.09;;;13.78;93.38
51849;BME280;38952;51.090;-1.832;2023-06-22T01:44:05;100650.31;;;13.76;93.66
51849;BME280;38952;51.090;-1.832;2023-06-22T01:46:33;100642.94;;;13.71;93.36
51849;BME280;38952;51.090;-1.832;2023-06-22T01:48:59;100648.44;;;13.71;93.78
51849;BME280;38952;51.090;-1.832;2023-06-22T01:51:25;100642.66;;;13.68;93.97
51849;BME280;38952;51.090;-1.832;2023-06-22T01:53:50;100653.13;;;13.60;94.49
51849;BME280;38952;51.090;-1.832;2023-06-22T01:56:17;100653.44;;;13.54;95.01
51849;BME280;38952;51.090;-1.832;2023-06-22T01:58:58;100652.34;;;13.50;94.87
51849;BME280;38952;51.090;-1.832;2023-06-22T02:01:28;100647.94;;;13.49;95.00
51849;BME280;38952;51.090;-1.832;2023-06-22T02:04:03;100655.66;;;13.47;95.30
51849;BME280;38952;51.090;-1.832;2023-06-22T02:06:36;100657.84;;;13.50;94.80
51849;BME280;38952;51.090;-1.832;2023-06-22T02:09:08;100658.66;;;13.50;94.68
51849;BME280;38952;51.090;-1.832;2023-06-22T02:11:36;100658.94;;;13.54;94.93
51849;BME280;38952;51.090;-1.832;2023-06-22T02:14:05;100656.72;;;13.56;94.90
51849;BME280;38952;51.090;-1.832;2023-06-22T02:16:32;100657.25;;;13.63;94.32
51849;BME280;38952;51.090;-1.832;2023-06-22T02:19:01;100651.75;;;13.63;94.19
51849;BME280;38952;51.090;-1.832;2023-06-22T02:21:28;100664.63;;;13.68;94.11
51849;BME280;38952;51.090;-1.832;2023-06-22T02:23:55;100664.06;;;13.71;93.95
51849;BME280;38952;51.090;-1.832;2023-06-22T02:26:20;100661.06;;;13.67;93.88
51849;BME280;38952;51.090;-1.832;2023-06-22T02:28:46;100662.16;;;13.66;93.84
51849;BME280;38952;51.090;-1.832;2023-06-22T02:31:11;100652.84;;;13.62;94.04
51849;BME280;38952;51.090;-1.832;2023-06-22T02:33:37;100667.09;;;13.69;94.05
51849;BME280;38952;51.090;-1.832;2023-06-22T02:36:02;100663.78;;;13.72;94.11
51849;BME280;38952;51.090;-1.832;2023-06-22T02:38:37;100658.28;;;13.72;93.97
51849;BME280;38952;51.090;-1.832;2023-06-22T02:41:02;100653.66;;;13.68;93.66
51849;BME280;38952;51.090;-1.832;2023-06-22T02:43:28;100655.81;;;13.71;93.84
51849;BME280;38952;51.090;-1.832;2023-06-22T02:45:53;100662.97;;;13.72;93.63
51849;BME280;38952;51.090;-1.832;2023-06-22T02:48:19;100660.47;;;13.75;93.38
51849;BME280;38952;51.090;-1.832;2023-06-22T02:50:45;100658.00;;;13.74;93.35
51849;BME280;38952;51.090;-1.832;2023-06-22T02:53:10;100662.69;;;13.73;93.18
51849;BME280;38952;51.090;-1.832;2023-06-22T02:55:35;100662.69;;;13.73;93.25
51849;BME280;38952;51.090;-1.832;2023-06-22T02:58:01;100653.34;;;13.69;93.94
51849;BME280;38952;51.090;-1.832;2023-06-22T03:00:32;100645.44;;;13.63;93.74
51849;BME280;38952;51.090;-1.832;2023-06-22T03:02:58;100633.09;;;13.55;94.27
51849;BME280;38952;51.090;-1.832;2023-06-22T03:05:23;100654.50;;;13.68;94.21
51849;BME280;38952;51.090;-1.832;2023-06-22T03:07:49;100644.03;;;13.65;94.13
51849;BME280;38952;51.090;-1.832;2023-06-22T03:10:16;100647.06;;;13.69;94.29
51849;BME280;38952;51.090;-1.832;2023-06-22T03:12:42;100638.28;;;13.61;94.44
51849;BME280;38952;51.090;-1.832;2023-06-22T03:15:10;100642.97;;;13.61;94.49
51849;BME280;38952;51.090;-1.832;2023-06-22T03:17:37;100641.88;;;13.52;94.86
51849;BME280;38952;51.090;-1.832;2023-06-22T03:20:04;100642.72;;;13.47;95.10
51849;BME280;38952;51.090;-1.832;2023-06-22T03:22:41;100637.56;;;13.35;94.75
51849;BME280;38952;51.090;-1.832;2023-06-22T03:25:08;100638.09;;;13.32;95.11
51849;BME280;38952;51.090;-1.832;2023-06-22T03:27:38;100640.84;;;13.27;95.84
51849;BME280;38952;51.090;-1.832;2023-06-22T03:30:05;100637.56;;;13.25;95.44
51849;BME280;38952;51.090;-1.832;2023-06-22T03:32:30;100635.91;;;13.24;95.53
51849;BME280;38952;51.090;-1.832;2023-06-22T03:34:55;100646.88;;;13.34;95.75
51849;BME280;38952;51.090;-1.832;2023-06-22T03:37:26;100635.91;;;13.39;95.03
51849;BME280;38952;51.090;-1.832;2023-06-22T03:39:53;100628.16;;;13.52;94.91
51849;BME280;38952;51.090;-1.832;2023-06-22T03:42:18;100622.63;;;13.62;94.33
51849;BME280;38952;51.090;-1.832;2023-06-22T03:44:44;100618.19;;;13.66;94.37
51849;BME280;38952;51.090;-1.832;2023-06-22T03:47:09;100618.16;;;13.76;93.87
51849;BME280;38952;51.090;-1.832;2023-06-22T03:49:35;100606.34;;;13.76;94.64
51849;BME280;38952;51.090;-1.832;2023-06-22T03:52:02;100612.66;;;13.76;94.17
51849;BME280;38952;51.090;-1.832;2023-06-22T03:54:29;100624.22;;;13.78;93.98
51849;BME280;38952;51.090;-1.832;2023-06-22T03:56:56;100623.66;;;13.76;94.22
51849;BME280;38952;51.090;-1.832;2023-06-22T03:59:21;100632.69;;;13.82;94.45
51849;BME280;38952;51.090;-1.832;2023-06-22T04:01:47;100636.25;;;13.88;94.15
51849;BME280;38952;51.090;-1.832;2023-06-22T04:04:12;100635.09;;;13.94;94.13
51849;BME280;38952;51.090;-1.832;2023-06-22T04:06:38;100635.63;;;14.01;94.28
51849;BME280;38952;51.090;-1.832;2023-06-22T04:09:05;100634.50;;;14.02;94.26
51849;BME280;38952;51.090;-1.832;2023-06-22T04:11:30;100635.31;;;14.08;94.66
51849;BME280;38952;51.090;-1.832;2023-06-22T04:13:56;100625.72;;;14.00;94.41
51849;BME280;38952;51.090;-1.832;2023-06-22T04:16:21;100633.38;;;14.08;94.63
51849;BME280;38952;51.090;-1.832;2023-06-22T04:18:47;100644.09;;;14.10;95.15
51849;BME280;38952;51.090;-1.832;2023-06-22T04:21:13;100653.16;;;14.10;95.17
51849;BME280;38952;51.090;-1.832;2023-06-22T04:23:38;100640.25;;;14.11;95.40
51849;BME280;38952;51.090;-1.832;2023-06-22T04:26:04;100645.44;;;14.12;95.44
51849;BME280;38952;51.090;-1.832;2023-06-22T04:28:29;100640.53;;;14.04;96.03
51849;BME280;38952;51.090;-1.832;2023-06-22T04:30:55;100639.47;;;14.00;95.93
51849;BME280;38952;51.090;-1.832;2023-06-22T04:33:26;100631.81;;;13.92;96.77
51849;BME280;38952;51.090;-1.832;2023-06-22T04:35:53;100633.44;;;13.93;96.66
51849;BME280;38952;51.090;-1.832;2023-06-22T04:38:19;100632.91;;;13.96;96.94
51849;BME280;38952;51.090;-1.832;2023-06-22T04:40:48;100629.94;;;13.87;97.36
51849;BME280;38952;51.090;-1.832;2023-06-22T04:43:13;100631.31;;;13.79;97.56
51849;BME280;38952;51.090;-1.832;2023-06-22T04:45:38;100627.25;;;13.72;97.85
51849;BME280;38952;51.090;-1.832;2023-06-22T04:48:05;100638.00;;;13.68;98.63
51849;BME280;38952;51.090;-1.832;2023-06-22T04:50:30;100639.09;;;13.67;98.53
51849;BME280;38952;51.090;-1.832;2023-06-22T04:52:56;100646.78;;;13.70;99.31
51849;BME280;38952;51.090;-1.832;2023-06-22T04:55:21;100639.63;;;13.74;99.01
51849;BME280;38952;51.090;-1.832;2023-06-22T04:57:48;100639.63;;;13.74;98.87
51849;BME280;38952;51.090;-1.832;2023-06-22T05:00:15;100648.38;;;13.82;98.89
51849;BME280;38952;51.090;-1.832;2023-06-22T05:02:43;100652.75;;;13.83;98.95
51849;BME280;38952;51.090;-1.832;2023-06-22T05:05:09;100657.41;;;13.87;99.58
51849;BME280;38952;51.090;-1.832;2023-06-22T05:07:39;100641.47;;;13.84;99.30
51849;BME280;38952;51.090;-1.832;2023-06-22T05:10:11;100665.00;;;14.11;99.00
51849;BME280;38952;51.090;-1.832;2023-06-22T05:12:38;100654.50;;;14.13;98.51
51849;BME280;38952;51.090;-1.832;2023-06-22T05:15:05;100660.28;;;14.17;98.43
51849;BME280;38952;51.090;-1.832;2023-06-22T05:17:31;100654.22;;;14.20;98.33
51849;BME280;38952;51.090;-1.832;2023-06-22T05:19:56;100651.97;;;14.22;98.37
51849;BME280;38952;51.090;-1.832;2023-06-22T05:22:22;100651.97;;;14.22;98.07
51849;BME280;38952;51.090;-1.832;2023-06-22T05:24:47;100641.56;;;14.19;98.20
51849;BME280;38952;51.090;-1.832;2023-06-22T05:27:13;100657.97;;;14.34;97.91
51849;BME280;38952;51.090;-1.832;2023-06-22T05:29:39;100648.56;;;14.40;97.44
51849;BME280;38952;51.090;-1.832;2023-06-22T05:32:07;100639.75;;;14.38;97.42
51849;BME280;38952;51.090;-1.832;2023-06-22T05:34:51;100650.72;;;14.48;96.96
51849;BME280;38952;51.090;-1.832;2023-06-22T05:37:33;100635.59;;;14.46;96.18
51849;BME280;38952;51.090;-1.832;2023-06-22T05:40:22;100661.75;;;14.83;95.70
51849;BME280;38952;51.090;-1.832;2023-06-22T05:42:52;100656.69;;;14.95;95.17
51849;BME280;38952;51.090;-1.832;2023-06-22T05:45:22;100677.16;;;15.13;94.06
51849;BME280;38952;51.090;-1.832;2023-06-22T05:47:50;100667.72;;;15.19;93.41
51849;BME280;38952;51.090;-1.832;2023-06-22T05:50:15;100669.56;;;15.29;92.90
51849;BME280;38952;51.090;-1.832;2023-06-22T05:52:43;100667.09;;;15.28;92.81
51849;BME280;38952;51.090;-1.832;2023-06-22T05:55:11;100672.03;;;15.31;92.43
51849;BME280;38952;51.090;-1.832;2023-06-22T05:57:36;100691.16;;;15.46;92.32
51849;BME280;38952;51.090;-1.832;2023-06-22T06:00:02;100684.34;;;15.63;92.21
51849;BME280;38952;51.090;-1.832;2023-06-22T06:02:32;100691.75;;;15.92;91.25
51849;BME280;38952;51.090;-1.832;2023-06-22T06:04:59;100701.00;;;16.01;90.67
51849;BME280;38952;51.090;-1.832;2023-06-22T06:07:31;100689.16;;;16.00;89.76
51849;BME280;38952;51.090;-1.832;2023-06-22T06:09:59;100693.09;;;16.13;90.02
51849;BME280;38952;51.090;-1.832;2023-06-22T06:12:24;100678.66;;;16.21;89.60
51849;BME280;38952;51.090;-1.832;2023-06-22T06:14:50;100691.19;;;16.33;89.26
51849;BME280;38952;51.090;-1.832;2023-06-22T06:17:34;100655.97;;;16.25;88.81
51849;BME280;38952;51.090;-1.832;2023-06-22T06:20:07;100662.19;;;16.35;88.78
51849;BME280;38952;51.090;-1.832;2023-06-22T06:22:33;100678.19;;;16.52;88.28
51849;BME280;38952;51.090;-1.832;2023-06-22T06:24:58;100658.25;;;16.55;87.60
51849;BME280;38952;51.090;-1.832;2023-06-22T06:27:24;100660.03;;;16.65;87.32
51849;BME280;38952;51.090;-1.832;2023-06-22T06:29:54;100668.91;;;16.81;86.89
51849;BME280;38952;51.090;-1.832;2023-06-22T06:32:19;100673.06;;;16.98;86.35
51849;BME280;38952;51.090;-1.832;2023-06-22T06:34:45;100669.41;;;17.16;85.91
51849;BME280;38952;51.090;-1.832;2023-06-22T06:37:10;100666.97;;;17.28;84.98
51849;BME280;38952;51.090;-1.832;2023-06-22T06:39:36;100670.69;;;17.38;84.98
51849;BME280;38952;51.090;-1.832;2023-06-22T06:42:01;100664.53;;;17.55;84.73
51849;BME280;38952;51.090;-1.832;2023-06-22T06:44:27;100677.94;;;17.89;84.08
51849;BME280;38952;51.090;-1.832;2023-06-22T06:46:53;100666.84;;;18.17;83.17
51849;BME280;38952;51.090;-1.832;2023-06-22T06:49:19;100668.22;;;18.65;82.22
51849;BME280;38952;51.090;-1.832;2023-06-22T06:51:50;100649.84;;;18.92;80.93
51849;BME280;38952;51.090;-1.832;2023-06-22T06:54:18;100637.44;;;19.21;80.18
51849;BME280;38952;51.090;-1.832;2023-06-22T06:56:45;100655.91;;;19.34;78.70
51849;BME280;38952;51.090;-1.832;2023-06-22T06:59:14;100681.44;;;19.53;78.11
51849;BME280;38952;51.090;-1.832;2023-06-22T07:01:40;100685.25;;;19.66;77.83
51849;BME280;38952;51.090;-1.832;2023-06-22T07:04:06;100659.97;;;19.77;77.29
51849;BME280;38952;51.090;-1.832;2023-06-22T07:06:31;100671.50;;;20.10;76.44
51849;BME280;38952;51.090;-1.832;2023-06-22T07:08:59;100672.97;;;20.25;75.82
51849;BME280;38952;51.090;-1.832;2023-06-22T07:11:31;100673.16;;;20.46;75.14
51849;BME280;38952;51.090;-1.832;2023-06-22T07:13:56;100675.44;;;20.62;73.83
51849;BME280;38952;51.090;-1.832;2023-06-22T07:16:22;100681.66;;;20.41;72.74
51849;BME280;38952;51.090;-1.832;2023-06-22T07:18:48;100697.97;;;20.60;73.11
51849;BME280;38952;51.090;-1.832;2023-06-22T07:21:13;100681.84;;;20.80;72.59
51849;BME280;38952;51.090;-1.832;2023-06-22T07:23:41;100677.25;;;20.84;72.08
51849;BME280;38952;51.090;-1.832;2023-06-22T07:26:06;100702.72;;;21.03;71.55
51849;BME280;38952;51.090;-1.832;2023-06-22T07:28:33;100681.75;;;21.15;70.90
51849;BME280;38952;51.090;-1.832;2023-06-22T07:31:03;100676.06;;;21.50;70.52
51849;BME280;38952;51.090;-1.832;2023-06-22T07:33:29;100662.06;;;21.97;69.14
51849;BME280;38952;51.090;-1.832;2023-06-22T07:35:54;100677.88;;;22.35;67.90
51849;BME280;38952;51.090;-1.832;2023-06-22T07:38:20;100678.66;;;22.44;66.75
51849;BME280;38952;51.090;-1.832;2023-06-22T07:40:45;100691.06;;;22.68;65.83
51849;BME280;38952;51.090;-1.832;2023-06-22T07:43:11;100671.88;;;22.66;66.05
51849;BME280;38952;51.090;-1.832;2023-06-22T07:45:38;100679.75;;;22.86;65.16
51849;BME280;38952;51.090;-1.832;2023-06-22T07:48:05;100658.56;;;22.72;64.99
51849;BME280;38952;51.090;-1.832;2023-06-22T07:50:32;100668.16;;;22.96;65.01
51849;BME280;38952;51.090;-1.832;2023-06-22T07:52:58;100670.34;;;23.02;64.34
51849;BME280;38952;51.090;-1.832;2023-06-22T07:55:23;100684.19;;;22.99;63.76
51849;BME280;38952;51.090;-1.832;2023-06-22T07:57:49;100669.28;;;22.82;63.50
51849;BME280;38952;51.090;-1.832;2023-06-22T08:00:17;100659.56;;;23.01;63.23
51849;BME280;38952;51.090;-1.832;2023-06-22T08:02:44;100675.94;;;23.73;62.60
51849;BME280;38952;51.090;-1.832;2023-06-22T08:05:14;100694.84;;;24.29;61.29
51849;BME280;38952;51.090;-1.832;2023-06-22T08:07:42;100674.22;;;24.34;60.41
51849;BME280;38952;51.090;-1.832;2023-06-22T08:10:11;100664.47;;;24.28;59.41
51849;BME280;38952;51.090;-1.832;2023-06-22T08:12:36;100686.88;;;24.15;58.94
51849;BME280;38952;51.090;-1.832;2023-06-22T08:15:02;100675.97;;;23.98;59.53
51849;BME280;38952;51.090;-1.832;2023-06-22T08:17:28;100690.06;;;24.30;59.94
51849;BME280;38952;51.090;-1.832;2023-06-22T08:19:53;100679.38;;;24.32;59.49
51849;BME280;38952;51.090;-1.832;2023-06-22T08:22:19;100677.75;;;24.71;59.57
51849;BME280;38952;51.090;-1.832;2023-06-22T08:24:44;100697.09;;;25.37;58.85
51849;BME280;38952;51.090;-1.832;2023-06-22T08:27:10;100683.88;;;25.85;57.63
51849;BME280;38952;51.090;-1.832;2023-06-22T08:29:42;100685.94;;;26.59;56.60
51849;BME280;38952;51.090;-1.832;2023-06-22T08:32:09;100712.19;;;27.52;54.76
51849;BME280;38952;51.090;-1.832;2023-06-22T08:34:35;100673.66;;;27.53;53.14
51849;BME280;38952;51.090;-1.832;2023-06-22T08:37:03;100688.34;;;27.23;52.05
51849;BME280;38952;51.090;-1.832;2023-06-22T08:39:32;100686.63;;;27.15;52.69
51849;BME280;38952;51.090;-1.832;2023-06-22T08:42:07;100679.28;;;27.53;51.82
51849;BME280;38952;51.090;-1.832;2023-06-22T08:44:33;100675.56;;;27.72;50.92
51849;BME280;38952;51.090;-1.832;2023-06-22T08:46:58;100682.94;;;28.07;50.83
51849;BME280;38952;51.090;-1.832;2023-06-22T08:49:23;100699.53;;;28.16;49.94
51849;BME280;38952;51.090;-1.832;2023-06-22T08:51:51;100677.88;;;27.66;49.19
51849;BME280;38952;51.090;-1.832;2023-06-22T08:54:19;100678.69;;;26.97;50.52
51849;BME280;38952;51.090;-1.832;2023-06-22T08:56:45;100669.53;;;26.22;51.24
51849;BME280;38952;51.090;-1.832;2023-06-22T08:59:10;100685.25;;;25.75;52.69
51849;BME280;38952;51.090;-1.832;2023-06-22T09:01:45;100677.69;;;25.60;53.60
51849;BME280;38952;51.090;-1.832;2023-06-22T09:04:13;100665.41;;;25.49;53.70
51849;BME280;38952;51.090;-1.832;2023-06-22T09:06:41;100701.38;;;25.47;54.26
51849;BME280;38952;51.090;-1.832;2023-06-22T09:09:12;100693.47;;;25.20;54.68
51849;BME280;38952;51.090;-1.832;2023-06-22T09:11:42;100703.59;;;24.97;55.16
51849;BME280;38952;51.090;-1.832;2023-06-22T09:14:09;100688.63;;;24.61;55.67
51849;BME280;38952;51.090;-1.832;2023-06-22T09:16:35;100698.19;;;24.60;56.37
51849;BME280;38952;51.090;-1.832;2023-06-22T09:19:00;100683.59;;;24.54;56.68
51849;BME280;38952;51.090;-1.832;2023-06-22T09:21:26;100703.88;;;24.51;56.89
51849;BME280;38952;51.090;-1.832;2023-06-22T09:23:51;100693.00;;;24.74;56.71
51849;BME280;38952;51.090;-1.832;2023-06-22T09:26:18;100694.97;;;25.02;55.77
51849;BME280;38952;51.090;-1.832;2023-06-22T09:28:48;100698.16;;;25.16;55.85
51849;BME280;38952;51.090;-1.832;2023-06-22T09:31:13;100706.66;;;25.36;54.45
51849;BME280;38952;51.090;-1.832;2023-06-22T09:33:43;100686.09;;;25.44;54.44
51849;BME280;38952;51.090;-1.832;2023-06-22T09:36:09;100710.06;;;26.09;53.75
51849;BME280;38952;51.090;-1.832;2023-06-22T09:38:38;100690.66;;;26.36;53.13
51849;BME280;38952;51.090;-1.832;2023-06-22T09:41:04;100720.28;;;27.34;51.28
51849;BME280;38952;51.090;-1.832;2023-06-22T09:43:32;100712.50;;;28.24;49.80
51849;BME280;38952;51.090;-1.832;2023-06-22T09:46:02;100697.84;;;28.68;48.79
51849;BME280;38952;51.090;-1.832;2023-06-22T09:48:31;100707.44;;;29.01;45.00
51849;BME280;38952;51.090;-1.832;2023-06-22T09:50:59;100700.81;;;28.52;44.17
51849;BME280;38952;51.090;-1.832;2023-06-22T09:53:24;100702.69;;;28.41;44.04
51849;BME280;38952;51.090;-1.832;2023-06-22T09:55:50;100708.19;;;28.61;44.01
51849;BME280;38952;51.090;-1.832;2023-06-22T09:58:15;100712.84;;;28.80;43.21
51849;BME280;38952;51.090;-1.832;2023-06-22T10:00:40;100714.03;;;28.79;43.82
51849;BME280;38952;51.090;-1.832;2023-06-22T10:03:09;100700.41;;;28.50;44.14
51849;BME280;38952;51.090;-1.832;2023-06-22T10:05:44;100695.34;;;28.63;43.71
51849;BME280;38952;51.090;-1.832;2023-06-22T10:08:10;100690.25;;;28.72;42.85
51849;BME280;38952;51.090;-1.832;2023-06-22T10:10:35;100696.69;;;29.11;42.24
51849;BME280;38952;51.090;-1.832;2023-06-22T10:13:09;100712.44;;;30.08;40.79
51849;BME280;38952;51.090;-1.832;2023-06-22T10:15:40;100710.13;;;31.63;36.90
51849;BME280;38952;51.090;-1.832;2023-06-22T10:18:07;100706.88;;;31.76;35.59
51849;BME280;38952;51.090;-1.832;2023-06-22T10:20:33;100706.84;;;34.47;31.80
51849;BME280;38952;51.090;-1.832;2023-06-22T10:22:58;100719.94;;;36.85;29.40
51849;BME280;38952;51.090;-1.832;2023-06-22T10:25:27;100695.06;;;34.83;30.22
51849;BME280;38952;51.090;-1.832;2023-06-22T10:27:53;100700.97;;;32.80;32.56
51849;BME280;38952;51.090;-1.832;2023-06-22T10:30:18;100702.53;;;34.66;30.29
51849;BME280;38952;51.090;-1.832;2023-06-22T10:32:44;100701.25;;;34.40;30.69
51849;BME280;38952;51.090;-1.832;2023-06-22T10:35:09;100685.16;;;37.60;28.91
51849;BME280;38952;51.090;-1.832;2023-06-22T10:37:48;100702.97;;;42.37;24.34
51849;BME280;38952;51.090;-1.832;2023-06-22T10:40:21;100704.00;;;45.47;22.06
51849;BME280;38952;51.090;-1.832;2023-06-22T10:42:46;100696.72;;;43.34;21.20
51849;BME280;38952;51.090;-1.832;2023-06-22T10:45:15;100667.47;;;40.26;24.19
51849;BME280;38952;51.090;-1.832;2023-06-22T10:47:43;100692.47;;;39.90;25.57
51849;BME280;38952;51.090;-1.832;2023-06-22T10:50:18;100683.84;;;43.92;20.70
51849;BME280;38952;51.090;-1.832;2023-06-22T10:52:47;100691.78;;;46.52;18.23
51849;BME280;38952;51.090;-1.832;2023-06-22T10:55:13;100705.03;;;48.05;16.05
51849;BME280;38952;51.090;-1.832;2023-06-22T10:57:38;100696.31;;;47.83;16.31
51849;BME280;38952;51.090;-1.832;2023-06-22T11:00:20;100689.28;;;49.03;16.21
51849;BME280;38952;51.090;-1.832;2023-06-22T11:02:48;100701.78;;;51.31;15.67
51849;BME280;38952;51.090;-1.832;2023-06-22T11:05:14;100686.88;;;53.21;13.92
51849;BME280;38952;51.090;-1.832;2023-06-22T11:07:43;100706.41;;;54.36;12.70
51849;BME280;38952;51.090;-1.832;2023-06-22T11:10:16;100689.44;;;55.13;10.42
51849;BME280;38952;51.090;-1.832;2023-06-22T11:12:41;100680.75;;;54.07;10.82
51849;BME280;38952;51.090;-1.832;2023-06-22T11:15:08;100674.22;;;53.80;10.30
51849;BME280;38952;51.090;-1.832;2023-06-22T11:17:34;100673.84;;;54.18;11.26
51849;BME280;38952;51.090;-1.832;2023-06-22T11:20:09;100677.09;;;53.94;10.58
51849;BME280;38952;51.090;-1.832;2023-06-22T11:22:38;100670.91;;;54.89;10.76
51849;BME280;38952;51.090;-1.832;2023-06-22T11:25:04;100688.28;;;56.20;10.45
51849;BME280;38952;51.090;-1.832;2023-06-22T11:27:30;100679.78;;;57.17;9.11
51849;BME280;38952;51.090;-1.832;2023-06-22T11:29:56;100667.34;;;57.57;9.60
51849;BME280;38952;51.090;-1.832;2023-06-22T11:32:21;100679.97;;;57.75;9.14
51849;BME280;38952;51.090;-1.832;2023-06-22T11:34:49;100658.50;;;52.63;10.90
51849;BME280;38952;51.090;-1.832;2023-06-22T11:37:14;100645.44;;;51.47;12.27
51849;BME280;38952;51.090;-1.832;2023-06-22T11:39:43;100653.97;;;53.82;11.57
51849;BME280;38952;51.090;-1.832;2023-06-22T11:42:09;100659.09;;;55.32;9.64
51849;BME280;38952;51.090;-1.832;2023-06-22T11:44:35;100654.84;;;56.23;8.98
51849;BME280;38952;51.090;-1.832;2023-06-22T11:47:00;100661.78;;;57.28;9.10
51849;BME280;38952;51.090;-1.832;2023-06-22T11:49:26;100649.81;;;57.19;8.87
51849;BME280;38952;51.090;-1.832;2023-06-22T11:51:52;100632.53;;;53.05;10.53
51849;BME280;38952;51.090;-1.832;2023-06-22T11:54:20;100637.44;;;53.85;10.78
51849;BME280;38952;51.090;-1.832;2023-06-22T11:56:48;100648.53;;;55.88;10.04
51849;BME280;38952;51.090;-1.832;2023-06-22T11:59:14;100648.44;;;57.68;9.75
51849;BME280;38952;51.090;-1.832;2023-06-22T12:01:46;100638.66;;;59.01;8.78
51849;BME280;38952;51.090;-1.832;2023-06-22T12:04:12;100638.84;;;59.21;8.44
51849;BME280;38952;51.090;-1.832;2023-06-22T12:06:38;100627.44;;;55.97;9.25
51849;BME280;38952;51.090;-1.832;2023-06-22T12:09:06;100640.16;;;54.46;10.48
51849;BME280;38952;51.090;-1.832;2023-06-22T12:11:32;100628.84;;;55.37;9.12
51849;BME280;38952;51.090;-1.832;2023-06-22T12:13:57;100615.25;;;55.10;9.24
51849;BME280;38952;51.090;-1.832;2023-06-22T12:16:27;100611.94;;;56.97;9.18
51849;BME280;38952;51.090;-1.832;2023-06-22T12:18:52;100634.72;;;59.07;8.52
51849;BME280;38952;51.090;-1.832;2023-06-22T12:21:19;100618.03;;;60.48;8.12
51849;BME280;38952;51.090;-1.832;2023-06-22T12:23:44;100623.78;;;61.53;7.30
51849;BME280;38952;51.090;-1.832;2023-06-22T12:26:09;100603.69;;;58.88;6.95
51849;BME280;38952;51.090;-1.832;2023-06-22T12:28:37;100588.94;;;53.20;9.03
51849;BME280;38952;51.090;-1.832;2023-06-22T12:31:03;100580.63;;;53.11;10.14
51849;BME280;38952;51.090;-1.832;2023-06-22T12:33:28;100578.78;;;56.10;8.92
51849;BME280;38952;51.090;-1.832;2023-06-22T12:35:55;100585.19;;;57.92;7.08
51849;BME280;38952;51.090;-1.832;2023-06-22T12:38:24;100588.00;;;58.50;6.64
51849;BME280;38952;51.090;-1.832;2023-06-22T12:40:51;100599.91;;;60.04;6.46
51849;BME280;38952;51.090;-1.832;2023-06-22T12:43:21;100616.34;;;61.33;6.25
51849;BME280;38952;51.090;-1.832;2023-06-22T12:45:47;100598.88;;;61.88;5.79
51849;BME280;38952;51.090;-1.832;2023-06-22T12:48:12;100605.63;;;60.98;6.11
51849;BME280;38952;51.090;-1.832;2023-06-22T12:50:38;100579.44;;;56.88;7.67
51849;BME280;38952;51.090;-1.832;2023-06-22T12:53:03;100578.28;;;52.10;9.39
51849;BME280;38952;51.090;-1.832;2023-06-22T12:55:29;100574.63;;;47.94;11.72